Terminal Aerodrome Forecast
Issued by NWS Quad Cities IA IL

Home | Current Version | Previous Version | Text Only | Print | Product List | Glossary On
Versions: 1 2 3 4 5 6 7 8 9 10 11 12 13 14 15 16 17
000
FTUS43 KDVN 150500
TAFMLI
TAF
KMLI 150520Z 1506/1606 16003KT P6SM SCT050 BKN120
      TEMPO 1512/1515 6SM -SHRA BKN030
     FM151500 23006KT 4SM -RA BR OVC025
     FM151800 30008KT P6SM OVC025
      TEMPO 1518/1520 -SHRA
     FM152100 33011KT P6SM BKN050
     FM160100 34003KT P6SM SKC=

USA.gov is the U.S. government's official web portal to all federal, state and local government web resources and services.